Time;durP1;ratioP1;P1;durP2;ratioP2;P2;SDS_P1;SDS_P2;PMS_P1;PMS_P2;Temp;Humidity;BMP_temperature;BMP_pressure;BME280_temperature;BME280_humidity;BME280_pressure;Samples;Min_cycle;Max_cycle;Signal;HPM_P1;HPM_P2
2022/03/01 00:01:25;;;;;;;17.13;10.77;;;7.70;99.90;;;;;;5011547;28;20179;-68
2022/03/01 00:03:51;;;;;;;16.17;10.50;;;7.70;99.90;;;;;;5011646;28;20194;-68
2022/03/01 00:06:16;;;;;;;17.63;10.50;;;7.70;99.90;;;;;;5011492;28;20202;-68
2022/03/01 00:08:42;;;;;;;19.40;10.93;;;7.70;99.90;;;;;;5011574;28;20182;-68
2022/03/01 00:11:07;;;;;;;15.27;10.10;;;7.60;99.90;;;;;;5011056;28;20211;-68
2022/03/01 00:13:35;;;;;;;15.17;10.67;;;7.60;99.90;;;;;;5011459;28;20162;-69
2022/03/01 00:16:01;;;;;;;15.57;10.70;;;7.70;99.90;;;;;;5011854;28;20181;-67
2022/03/01 00:18:26;;;;;;;15.90;10.33;;;7.60;99.90;;;;;;5011287;28;20183;-68
2022/03/01 00:20:52;;;;;;;13.80;10.43;;;7.60;99.90;;;;;;5010465;28;20210;-68
2022/03/01 00:23:18;;;;;;;14.27;9.87;;;7.60;99.90;;;;;;5010887;28;20212;-68
2022/03/01 00:25:43;;;;;;;14.97;10.30;;;7.60;99.90;;;;;;5010738;28;20212;-68
2022/03/01 00:28:09;;;;;;;17.80;11.00;;;7.60;99.90;;;;;;5011062;28;20238;-67
2022/03/01 00:30:34;;;;;;;16.23;10.37;;;7.50;99.90;;;;;;5011128;28;20206;-68
2022/03/01 00:33:00;;;;;;;14.90;10.37;;;7.60;99.90;;;;;;5011266;28;20178;-68
2022/03/01 00:35:25;;;;;;;16.63;10.33;;;7.50;99.90;;;;;;5011025;28;20254;-67
2022/03/01 00:37:51;;;;;;;15.90;10.97;;;7.60;99.90;;;;;;5011224;28;20532;-68
2022/03/01 00:40:17;;;;;;;13.83;10.07;;;7.60;99.90;;;;;;5010376;28;20719;-68
2022/03/01 00:42:42;;;;;;;17.03;9.80;;;7.70;99.90;;;;;;5078621;28;20224;-68
2022/03/01 00:45:08;;;;;;;14.50;9.33;;;7.60;99.90;;;;;;5011005;28;20197;-67
2022/03/01 00:47:34;;;;;;;14.73;9.87;;;7.60;99.90;;;;;;5078719;28;20243;-68
2022/03/01 00:49:59;;;;;;;14.90;10.50;;;7.70;99.90;;;;;;5010737;28;20634;-68
2022/03/01 00:52:25;;;;;;;14.87;10.50;;;7.60;99.90;;;;;;5010258;28;20289;-68
2022/03/01 00:54:51;;;;;;;16.70;10.23;;;7.70;99.90;;;;;;5010753;28;20616;-68
2022/03/01 00:57:16;;;;;;;15.60;10.27;;;7.70;99.90;;;;;;5010923;28;20175;-68
2022/03/01 00:59:42;;;;;;;16.90;11.00;;;7.80;99.90;;;;;;5078452;28;20170;-67
2022/03/01 01:02:07;;;;;;;15.40;10.23;;;7.80;99.90;;;;;;5010590;28;20181;-68
2022/03/01 01:04:33;;;;;;;16.87;10.43;;;7.80;99.90;;;;;;5010541;28;20208;-68
2022/03/01 01:06:59;;;;;;;17.43;10.77;;;7.80;99.90;;;;;;5010773;28;20202;-67
2022/03/01 01:09:24;;;;;;;16.60;10.37;;;7.80;99.90;;;;;;5010458;28;20279;-67
2022/03/01 01:11:50;;;;;;;14.07;10.47;;;7.70;99.90;;;;;;5010341;28;20528;-68
2022/03/01 01:14:15;;;;;;;15.70;10.07;;;7.70;99.90;;;;;;5010568;28;20246;-68
2022/03/01 01:16:41;;;;;;;15.27;9.53;;;7.70;99.90;;;;;;5010494;28;20532;-68
2022/03/01 01:19:07;;;;;;;16.00;10.67;;;7.60;99.90;;;;;;5010521;28;20175;-67
2022/03/01 01:24:17;;;;;;;18.70;10.70;;;7.60;99.90;;;;;;5010450;28;20182;-67
2022/03/01 01:26:42;;;;;;;18.53;10.03;;;7.60;99.90;;;;;;5010562;28;20170;-67
2022/03/01 01:29:08;;;;;;;17.90;11.10;;;7.50;99.90;;;;;;5010609;28;20175;-67
2022/03/01 01:31:34;;;;;;;14.57;10.53;;;7.60;99.90;;;;;;5010197;28;20255;-68
2022/03/01 01:33:59;;;;;;;17.73;10.17;;;7.60;99.90;;;;;;5013199;28;20220;-68
2022/03/01 01:36:25;;;;;;;17.23;10.20;;;7.60;99.90;;;;;;5013891;28;20655;-67
2022/03/01 01:38:54;;;;;;;14.20;9.97;;;7.50;99.90;;;;;;5013566;28;20171;-68
2022/03/01 01:41:20;;;;;;;15.73;10.60;;;7.40;99.90;;;;;;5013675;28;20181;-67
2022/03/01 01:43:45;;;;;;;14.90;10.70;;;7.40;99.90;;;;;;5013805;28;20258;-68
2022/03/01 01:46:11;;;;;;;17.43;11.10;;;7.50;99.90;;;;;;5013608;28;20239;-68
2022/03/01 01:48:37;;;;;;;18.67;11.03;;;7.50;99.90;;;;;;5014044;28;20682;-69
2022/03/01 01:51:02;;;;;;;16.50;10.50;;;7.40;99.90;;;;;;5013420;28;20198;-67
2022/03/01 01:53:28;;;;;;;14.83;10.77;;;7.30;99.90;;;;;;5012930;28;20233;-68
2022/03/01 01:55:53;;;;;;;15.20;10.57;;;7.30;99.90;;;;;;5013727;28;20232;-68
2022/03/01 01:58:19;;;;;;;16.20;10.67;;;7.30;99.90;;;;;;5013703;28;21277;-69
2022/03/01 02:00:45;;;;;;;13.07;9.50;;;7.30;99.90;;;;;;5013383;28;20171;-70
2022/03/01 02:03:11;;;;;;;16.17;10.17;;;7.40;99.90;;;;;;5013538;28;20626;-67
2022/03/01 02:05:36;;;;;;;16.63;10.70;;;7.40;99.90;;;;;;5013193;28;20223;-68
2022/03/01 02:08:03;;;;;;;16.33;9.83;;;7.40;99.90;;;;;;5013096;28;20251;-69
2022/03/01 02:10:29;;;;;;;15.73;9.83;;;7.40;99.90;;;;;;5013339;28;20178;-68
2022/03/01 02:12:59;;;;;;;15.57;10.77;;;7.40;99.90;;;;;;5013280;28;20182;-67
2022/03/01 02:15:25;;;;;;;15.23;10.30;;;7.30;99.90;;;;;;5013198;28;20187;-69
2022/03/01 02:17:51;;;;;;;15.07;10.40;;;7.30;99.90;;;;;;5081602;28;20182;-68
2022/03/01 02:20:22;;;;;;;15.40;9.70;;;7.20;99.90;;;;;;5013114;28;20189;-68
2022/03/01 02:22:54;;;;;;;16.20;10.33;;;7.30;99.90;;;;;;5012779;28;20186;-67
2022/03/01 02:25:19;;;;;;;14.03;10.07;;;7.20;99.90;;;;;;5013207;28;20167;-68
2022/03/01 02:27:45;;;;;;;15.07;10.23;;;7.20;99.90;;;;;;5012982;28;20182;-68
2022/03/01 02:30:11;;;;;;;18.63;10.70;;;7.20;99.90;;;;;;5012850;28;20174;-68
2022/03/01 02:32:38;;;;;;;14.00;9.77;;;7.20;99.90;;;;;;5012992;28;20249;-67
2022/03/01 02:35:05;;;;;;;14.20;9.70;;;7.20;99.90;;;;;;5012990;28;20167;-68
2022/03/01 02:37:30;;;;;;;14.83;11.00;;;7.30;99.90;;;;;;5012930;28;20249;-68
2022/03/01 02:39:56;;;;;;;17.40;10.03;;;7.30;99.90;;;;;;5013031;28;20641;-68
2022/03/01 02:42:22;;;;;;;15.07;9.60;;;7.30;99.90;;;;;;5012633;28;20193;-68
2022/03/01 02:44:49;;;;;;;16.50;10.07;;;7.20;99.90;;;;;;5012506;28;20187;-68
2022/03/01 02:47:15;;;;;;;15.50;9.87;;;7.20;99.90;;;;;;5012921;28;20202;-68
2022/03/01 02:49:41;;;;;;;15.33;10.57;;;7.20;99.90;;;;;;5012767;28;20174;-68
2022/03/01 02:52:07;;;;;;;15.93;9.83;;;7.20;99.90;;;;;;5012031;28;20212;-67
2022/03/01 02:54:33;;;;;;;16.43;10.20;;;7.10;99.90;;;;;;5012703;28;20654;-68
2022/03/01 02:57:01;;;;;;;13.63;9.13;;;7.20;99.90;;;;;;5012696;28;20178;-68
2022/03/01 02:59:28;;;;;;;18.03;10.47;;;7.20;99.90;;;;;;5012661;28;20167;-68
2022/03/01 03:01:53;;;;;;;18.70;10.90;;;7.20;99.90;;;;;;5012524;28;20228;-68
2022/03/01 03:04:19;;;;;;;14.80;10.13;;;7.20;99.90;;;;;;5012453;28;20641;-68
2022/03/01 03:06:44;;;;;;;16.90;10.33;;;7.20;99.90;;;;;;5012059;28;20634;-68
2022/03/01 03:09:10;;;;;;;14.50;9.80;;;7.10;99.90;;;;;;5012554;28;20205;-68
2022/03/01 03:11:36;;;;;;;13.63;9.63;;;7.10;99.90;;;;;;5012430;28;20210;-67
2022/03/01 03:14:02;;;;;;;15.90;9.90;;;7.10;99.90;;;;;;5012272;28;20523;-68
2022/03/01 03:16:27;;;;;;;15.60;9.90;;;7.10;99.90;;;;;;5012360;28;20202;-68
2022/03/01 03:18:53;;;;;;;17.17;10.30;;;7.00;99.90;;;;;;5012287;28;20250;-69
2022/03/01 03:21:19;;;;;;;18.30;10.63;;;7.00;99.90;;;;;;5011873;28;20182;-68
2022/03/01 03:23:45;;;;;;;15.23;9.80;;;7.00;99.90;;;;;;5012515;28;20171;-69
2022/03/01 03:26:11;;;;;;;12.83;9.40;;;7.10;99.90;;;;;;5012283;28;20183;-68
2022/03/01 03:28:37;;;;;;;13.10;9.47;;;7.10;99.90;;;;;;5012129;28;20247;-68
2022/03/01 03:31:02;;;;;;;14.47;9.40;;;7.00;99.90;;;;;;5011985;28;20670;-68
2022/03/01 03:33:28;;;;;;;12.57;9.77;;;7.00;99.90;;;;;;5012171;28;20195;-68
2022/03/01 03:35:54;;;;;;;12.83;8.83;;;7.10;99.90;;;;;;5011788;28;20548;-68
2022/03/01 03:38:20;;;;;;;17.87;9.57;;;7.20;99.90;;;;;;5012290;28;20220;-68
2022/03/01 03:40:46;;;;;;;16.37;10.33;;;7.20;99.90;;;;;;5011709;28;20249;-67
2022/03/01 03:43:12;;;;;;;14.33;9.63;;;7.20;99.90;;;;;;5011839;28;20721;-69
2022/03/01 03:45:38;;;;;;;16.43;10.30;;;7.20;99.90;;;;;;5011964;28;20213;-68
2022/03/01 03:48:04;;;;;;;12.93;9.83;;;7.20;99.90;;;;;;5012083;28;20179;-68
2022/03/01 03:50:29;;;;;;;12.97;9.40;;;7.20;99.90;;;;;;5011426;28;20179;-68
2022/03/01 03:52:55;;;;;;;14.50;10.00;;;7.30;99.90;;;;;;5011464;28;20329;-68
2022/03/01 03:55:21;;;;;;;12.80;9.57;;;7.30;99.90;;;;;;5010973;28;20182;-67
2022/03/01 03:57:47;;;;;;;13.17;9.40;;;7.30;99.90;;;;;;5012093;28;20186;-68
2022/03/01 04:00:16;;;;;;;13.43;9.77;;;7.30;99.90;;;;;;5011850;28;20171;-67
2022/03/01 04:02:44;;;;;;;14.33;9.63;;;7.40;99.90;;;;;;5011665;28;20200;-67
2022/03/01 04:05:12;;;;;;;13.90;9.30;;;7.40;99.90;;;;;;5011347;28;20167;-67
2022/03/01 04:07:41;;;;;;;12.37;9.20;;;7.40;99.90;;;;;;5011945;28;20207;-67
2022/03/01 04:10:08;;;;;;;14.43;9.40;;;7.40;99.90;;;;;;5011459;28;20179;-67
2022/03/01 04:12:35;;;;;;;12.20;9.07;;;7.40;99.90;;;;;;5011431;28;20275;-68
2022/03/01 04:15:01;;;;;;;13.57;9.63;;;7.30;99.90;;;;;;5011294;28;20660;-67
2022/03/01 04:17:27;;;;;;;12.03;9.43;;;7.30;99.90;;;;;;5011118;28;20179;-67
2022/03/01 04:19:52;;;;;;;14.87;9.80;;;7.20;99.90;;;;;;5011210;28;20167;-68
2022/03/01 04:22:18;;;;;;;11.73;9.10;;;7.20;99.90;;;;;;5011121;28;20174;-68
2022/03/01 04:24:44;;;;;;;13.07;9.53;;;7.20;99.90;;;;;;5011297;28;20182;-67
2022/03/01 04:27:10;;;;;;;12.50;9.13;;;7.20;99.90;;;;;;5011490;28;20700;-67
2022/03/01 04:29:35;;;;;;;13.00;9.17;;;7.20;99.90;;;;;;5010789;28;20219;-67
2022/03/01 04:32:02;;;;;;;12.47;9.93;;;7.20;99.90;;;;;;5010493;28;20206;-67
2022/03/01 04:34:28;;;;;;;12.83;9.40;;;7.20;99.90;;;;;;5011276;28;20192;-67
2022/03/01 04:36:54;;;;;;;13.00;8.97;;;7.20;99.90;;;;;;5011140;28;20178;-67
2022/03/01 04:39:19;;;;;;;13.43;9.90;;;7.20;99.90;;;;;;5011202;28;20170;-67
2022/03/01 04:41:45;;;;;;;16.27;10.63;;;7.30;99.90;;;;;;5010916;28;20179;-68
2022/03/01 04:44:10;;;;;;;15.47;10.20;;;7.30;99.90;;;;;;5010697;28;20213;-68
2022/03/01 04:46:36;;;;;;;15.33;10.10;;;7.30;99.90;;;;;;5010286;28;20195;-67
2022/03/01 04:49:03;;;;;;;12.63;9.20;;;7.30;99.90;;;;;;5010912;28;20254;-67
2022/03/01 04:51:29;;;;;;;16.23;9.50;;;7.30;99.90;;;;;;5010676;28;20585;-67
2022/03/01 04:53:55;;;;;;;13.77;9.53;;;7.20;99.90;;;;;;5010313;28;20231;-67
2022/03/01 04:56:21;;;;;;;11.73;9.60;;;7.30;99.90;;;;;;5010706;28;20649;-67
2022/03/01 04:58:46;;;;;;;16.70;10.37;;;7.30;99.90;;;;;;5010614;28;20202;-67
2022/03/01 05:01:12;;;;;;;14.20;9.83;;;7.30;99.90;;;;;;5010229;28;20702;-68
2022/03/01 05:03:38;;;;;;;16.07;10.60;;;7.30;99.90;;;;;;5010396;28;20570;-67
2022/03/01 05:06:03;;;;;;;14.70;10.00;;;7.30;99.90;;;;;;5010511;28;20652;-66
2022/03/01 05:08:30;;;;;;;14.97;9.80;;;7.20;99.90;;;;;;5010247;28;20227;-67
2022/03/01 05:11:00;;;;;;;16.03;10.17;;;7.20;99.90;;;;;;5009982;28;20206;-67
2022/03/01 05:13:26;;;;;;;14.50;10.00;;;7.20;99.90;;;;;;5009976;28;20261;-67
2022/03/01 05:15:52;;;;;;;13.90;9.60;;;7.20;99.90;;;;;;5010122;28;20710;-67
2022/03/01 05:18:17;;;;;;;12.30;9.33;;;7.10;99.90;;;;;;5010360;28;20244;-67
2022/03/01 05:20:43;;;;;;;16.53;10.30;;;7.20;99.90;;;;;;5009840;28;20523;-67
2022/03/01 05:23:09;;;;;;;15.67;10.37;;;7.10;99.90;;;;;;5009841;28;20197;-67
2022/03/01 05:25:34;;;;;;;13.47;10.03;;;7.20;99.90;;;;;;5077689;28;20232;-68
2022/03/01 05:28:00;;;;;;;11.47;9.83;;;7.10;99.90;;;;;;5010061;28;20181;-67
2022/03/01 05:30:26;;;;;;;12.60;9.50;;;7.10;99.90;;;;;;5009225;28;20650;-68
2022/03/01 05:32:52;;;;;;;11.17;9.33;;;7.10;99.90;;;;;;5009576;28;20217;-68
2022/03/01 05:35:27;;;;;;;19.03;10.20;;;7.10;99.90;;;;;;5077754;28;20574;-67
2022/03/01 05:37:54;;;;;;;14.20;9.87;;;7.10;99.90;;;;;;5009652;28;20664;-67
2022/03/01 05:40:24;;;;;;;13.37;9.57;;;7.10;99.90;;;;;;5010101;28;20182;-67
2022/03/01 05:42:50;;;;;;;13.63;10.13;;;7.20;99.90;;;;;;5009513;28;20595;-67
2022/03/01 05:45:16;;;;;;;14.83;9.90;;;7.20;99.90;;;;;;5008884;28;20233;-68
2022/03/01 05:47:43;;;;;;;14.63;9.87;;;7.20;99.90;;;;;;5010054;28;20631;-67
2022/03/01 05:50:09;;;;;;;16.33;10.60;;;7.10;99.90;;;;;;5010133;28;20641;-68
2022/03/01 05:52:36;;;;;;;12.73;9.63;;;7.10;99.90;;;;;;5009103;28;20257;-68
2022/03/01 05:55:04;;;;;;;14.40;10.20;;;7.10;99.90;;;;;;5009158;28;20243;-68
2022/03/01 05:57:30;;;;;;;17.47;10.93;;;7.10;99.90;;;;;;5009298;28;20187;-66
2022/03/01 05:59:56;;;;;;;14.07;10.47;;;7.00;99.90;;;;;;5009005;28;20585;-65
2022/03/01 06:02:22;;;;;;;14.90;10.63;;;7.00;99.90;;;;;;5009318;28;20178;-67
2022/03/01 06:04:48;;;;;;;14.73;10.67;;;7.00;99.90;;;;;;5009383;28;20251;-68
2022/03/01 06:07:13;;;;;;;14.27;9.93;;;7.00;99.90;;;;;;5010116;28;20507;-67
2022/03/01 06:09:39;;;;;;;17.53;10.30;;;7.00;99.90;;;;;;5077155;28;20529;-68
2022/03/01 06:12:05;;;;;;;14.47;10.10;;;6.90;99.90;;;;;;5009395;28;20218;-67
2022/03/01 06:14:30;;;;;;;18.03;11.03;;;6.80;99.90;;;;;;5009108;28;20698;-68
2022/03/01 06:16:56;;;;;;;21.17;11.07;;;6.80;99.90;;;;;;5008607;28;20567;-68
2022/03/01 06:19:22;;;;;;;23.13;11.57;;;6.80;1.00;;;;;;5010906;28;20273;-67
2022/03/01 06:21:47;;;;;;;33.07;11.97;;;6.80;1.00;;;;;;5013026;28;20669;-68
2022/03/01 06:24:13;;;;;;;20.27;11.47;;;6.80;1.00;;;;;;5012613;28;20178;-67
2022/03/01 06:26:39;;;;;;;18.53;10.87;;;6.80;1.00;;;;;;5012328;28;20236;-68
2022/03/01 06:29:05;;;;;;;20.63;11.07;;;6.90;1.00;;;;;;5011660;28;20260;-67
2022/03/01 06:31:31;;;;;;;16.23;10.77;;;6.90;1.00;;;;;;5012226;28;20206;-67
2022/03/01 06:33:57;;;;;;;17.47;11.00;;;6.90;1.00;;;;;;5011905;28;20182;-67
2022/03/01 06:36:24;;;;;;;17.43;10.40;;;7.00;99.90;;;;;;5012527;28;20660;-67
2022/03/01 06:38:49;;;;;;;19.00;11.20;;;7.00;99.90;;;;;;5012523;28;20642;-67
2022/03/01 06:41:15;;;;;;;25.60;12.47;;;7.10;99.90;;;;;;5011637;28;20186;-68
2022/03/01 06:43:41;;;;;;;17.63;11.23;;;7.20;99.90;;;;;;5012239;28;20170;-67
2022/03/01 06:46:07;;;;;;;20.40;10.77;;;7.30;99.90;;;;;;5012110;28;20194;-67
2022/03/01 06:48:32;;;;;;;15.03;10.23;;;7.40;99.90;;;;;;5011608;28;20256;-68
2022/03/01 06:50:58;;;;;;;16.03;9.70;;;7.40;99.90;;;;;;5011666;28;20221;-67
2022/03/01 06:53:24;;;;;;;22.70;11.17;;;7.30;99.90;;;;;;5011462;28;20230;-68
2022/03/01 06:55:49;;;;;;;35.43;13.80;;;7.30;99.90;;;;;;5012171;28;20304;-68
2022/03/01 06:58:15;;;;;;;26.63;11.33;;;7.30;99.90;;;;;;5078916;28;20185;-68
2022/03/01 07:00:41;;;;;;;19.00;10.97;;;7.40;99.90;;;;;;5011013;28;20178;-68
2022/03/01 07:03:07;;;;;;;21.63;10.77;;;7.40;99.90;;;;;;5011969;28;20174;-67
2022/03/01 07:05:33;;;;;;;24.97;11.73;;;7.50;99.90;;;;;;5011442;28;20186;-68
2022/03/01 07:07:58;;;;;;;20.03;11.50;;;7.60;99.90;;;;;;5012393;28;20175;-67
2022/03/01 07:10:24;;;;;;;21.53;11.13;;;7.80;99.90;;;;;;5010961;28;20293;-68
2022/03/01 07:12:50;;;;;;;17.17;11.60;;;7.80;99.90;;;;;;5010632;28;20305;-67
2022/03/01 07:15:16;;;;;;;21.77;11.20;;;7.70;99.90;;;;;;5011463;28;20186;-68
2022/03/01 07:17:41;;;;;;;20.47;11.93;;;7.80;99.90;;;;;;5011657;28;20213;-67
2022/03/01 07:20:08;;;;;;;19.17;11.33;;;7.70;99.90;;;;;;5011045;28;20179;-67
2022/03/01 07:22:35;;;;;;;21.17;11.30;;;7.80;99.90;;;;;;5010885;28;20231;-68
2022/03/01 07:25:01;;;;;;;18.33;11.20;;;7.70;99.90;;;;;;5011195;28;20235;-67
2022/03/01 07:27:27;;;;;;;19.87;11.30;;;7.80;99.90;;;;;;5011093;28;20166;-68
2022/03/01 07:29:53;;;;;;;17.83;11.63;;;7.90;99.90;;;;;;5010261;28;20581;-68
2022/03/01 07:32:19;;;;;;;18.17;11.33;;;8.00;99.90;;;;;;5010479;28;20317;-68
2022/03/01 07:34:44;;;;;;;18.77;11.20;;;8.00;99.90;;;;;;5010684;28;20292;-67
2022/03/01 07:37:10;;;;;;;22.57;12.83;;;8.00;99.90;;;;;;5011113;28;20175;-68
2022/03/01 07:39:35;;;;;;;22.90;12.47;;;8.10;99.90;;;;;;5010467;28;20263;-67
2022/03/01 07:42:01;;;;;;;21.27;11.93;;;8.20;99.90;;;;;;5010392;28;20179;-67
2022/03/01 07:44:27;;;;;;;22.43;12.27;;;8.30;99.90;;;;;;5010634;28;20163;-67
2022/03/01 07:46:52;;;;;;;24.43;12.83;;;8.40;99.90;;;;;;5008153;28;20290;-65
2022/03/01 07:49:18;;;;;;;21.33;12.50;;;8.50;99.90;;;;;;5032551;27;20178;-67
2022/03/01 07:51:44;;;;;;;22.20;12.17;;;8.60;99.90;;;;;;5029864;28;20669;-66
2022/03/01 07:54:09;;;;;;;22.20;12.20;;;8.70;99.90;;;;;;5026626;28;20234;-66
2022/03/01 07:56:35;;;;;;;21.23;11.50;;;8.80;99.90;;;;;;5009396;28;20170;-67
2022/03/01 07:59:01;;;;;;;26.67;12.63;;;8.90;99.90;;;;;;5010364;28;20183;-67
2022/03/01 08:01:26;;;;;;;18.97;11.33;;;8.90;99.90;;;;;;5010676;28;20630;-67
2022/03/01 08:03:52;;;;;;;29.50;12.73;;;8.80;99.90;;;;;;5009058;28;20633;-69
2022/03/01 08:06:18;;;;;;;17.87;12.57;;;8.90;99.90;;;;;;5009246;28;20204;-68
2022/03/01 08:09:02;;;;;;;22.77;12.43;;;9.10;99.90;;;;;;5010472;28;20197;-67
2022/03/01 08:11:28;;;;;;;29.27;13.33;;;9.20;99.90;;;;;;5009634;28;20309;-68
2022/03/01 08:13:54;;;;;;;22.23;13.27;;;9.40;99.90;;;;;;5017827;28;20273;-66
2022/03/01 08:16:19;;;;;;;18.87;11.87;;;9.40;99.90;;;;;;5024599;28;20905;-67
2022/03/01 08:18:45;;;;;;;21.27;12.70;;;9.50;99.90;;;;;;5011710;28;20194;-69
2022/03/01 08:21:12;;;;;;;21.17;11.77;;;9.50;99.90;;;;;;5009959;28;20261;-69
2022/03/01 08:23:38;;;;;;;19.33;11.93;;;9.60;99.90;;;;;;5018536;28;20200;-67
2022/03/01 08:26:04;;;;;;;21.43;12.07;;;9.50;99.90;;;;;;5014753;28;20182;-69
2022/03/01 08:28:31;;;;;;;20.17;13.93;;;9.50;99.90;;;;;;5019967;28;20431;-67
2022/03/01 08:30:57;;;;;;;22.80;12.93;;;9.60;99.90;;;;;;5017865;28;20271;-68
2022/03/01 08:33:24;;;;;;;19.98;13.30;;;9.70;99.90;;;;;;5019546;28;21053;-69
2022/03/01 08:35:50;;;;;;;21.23;13.03;;;9.90;99.90;;;;;;5018932;28;20672;-67
2022/03/01 08:38:16;;;;;;;17.80;11.37;;;9.80;99.90;;;;;;5014807;28;20187;-65
2022/03/01 08:40:42;;;;;;;22.90;13.20;;;9.90;99.90;;;;;;5077978;28;20178;-66
2022/03/01 08:43:09;;;;;;;21.27;12.57;;;9.90;99.90;;;;;;5017273;27;20197;-65
2022/03/01 08:45:35;;;;;;;21.73;12.40;;;10.00;99.90;;;;;;5047641;27;20230;-66
2022/03/01 08:48:01;;;;;;;22.97;13.13;;;9.80;99.90;;;;;;5011292;28;20210;-65
2022/03/01 08:50:27;;;;;;;28.30;13.73;;;9.90;99.90;;;;;;5010916;28;20592;-67
2022/03/01 08:52:52;;;;;;;33.33;13.33;;;9.80;99.90;;;;;;5019576;28;20238;-65
2022/03/01 08:55:18;;;;;;;28.73;13.60;;;10.20;99.90;;;;;;5011859;28;20193;-65
2022/03/01 08:57:44;;;;;;;18.03;12.70;;;10.60;99.90;;;;;;5011819;28;20190;-66
2022/03/01 09:00:11;;;;;;;19.87;13.13;;;11.00;99.90;;;;;;5011872;28;20550;-67
2022/03/01 09:02:37;;;;;;;20.67;13.50;;;11.40;99.90;;;;;;5022796;28;20181;-67
2022/03/01 09:05:05;;;;;;;21.10;13.57;;;11.70;99.90;;;;;;5025998;27;20262;-66
2022/03/01 09:07:31;;;;;;;17.53;13.13;;;11.90;99.90;;;;;;5016032;28;20178;-67
2022/03/01 09:09:57;;;;;;;21.00;12.87;;;11.50;99.90;;;;;;5020394;28;20258;-66
2022/03/01 09:12:22;;;;;;;22.50;13.30;;;11.50;99.90;;;;;;5011736;28;20255;-67
2022/03/01 09:14:48;;;;;;;23.03;13.80;;;11.80;99.90;;;;;;5015423;28;20194;-67
2022/03/01 09:17:14;;;;;;;26.57;13.43;;;11.80;99.90;;;;;;5015967;28;20267;-66
2022/03/01 09:19:39;;;;;;;21.13;13.50;;;11.80;99.90;;;;;;5009169;28;20183;-66
2022/03/01 09:22:05;;;;;;;29.10;13.93;;;11.60;99.90;;;;;;5011689;28;20517;-66
2022/03/01 09:24:30;;;;;;;24.43;14.33;;;11.40;99.90;;;;;;5014509;28;20190;-66
2022/03/01 09:27:00;;;;;;;27.27;14.17;;;11.30;99.90;;;;;;5013821;28;20210;-65
2022/03/01 09:29:27;;;;;;;20.40;13.67;;;11.40;99.90;;;;;;5078446;28;20209;-65
2022/03/01 09:31:53;;;;;;;20.03;13.37;;;11.40;99.90;;;;;;5014168;28;20213;-66
2022/03/01 09:34:18;;;;;;;24.63;14.30;;;11.40;99.90;;;;;;5023439;28;20178;-67
2022/03/01 09:36:44;;;;;;;23.00;13.53;;;11.70;99.90;;;;;;5010058;28;20337;-67
2022/03/01 09:39:09;;;;;;;23.37;13.30;;;11.70;99.90;;;;;;5022447;28;20223;-66
2022/03/01 09:41:37;;;;;;;22.20;13.00;;;11.50;99.90;;;;;;5029050;28;20527;-66
2022/03/01 09:44:03;;;;;;;20.73;13.20;;;11.40;99.90;;;;;;5013048;28;20190;-66
2022/03/01 09:46:29;;;;;;;26.27;14.00;;;11.40;99.90;;;;;;5008379;28;20182;-66
2022/03/01 09:48:55;;;;;;;27.13;14.13;;;11.50;99.90;;;;;;5013009;28;20193;-67
2022/03/01 09:51:21;;;;;;;24.13;13.70;;;11.50;99.90;;;;;;5014839;28;20270;-66
2022/03/01 09:53:49;;;;;;;31.77;14.00;;;11.40;99.90;;;;;;5020618;28;20218;-67
2022/03/01 09:56:15;;;;;;;22.33;12.83;;;11.40;99.90;;;;;;5084725;28;20170;-67
2022/03/01 09:58:45;;;;;;;20.00;13.67;;;11.40;99.90;;;;;;5025698;28;20281;-67
2022/03/01 10:01:10;;;;;;;19.97;12.53;;;11.40;99.90;;;;;;5021065;28;20240;-68
2022/03/01 10:03:36;;;;;;;24.37;13.57;;;11.10;99.90;;;;;;5016505;27;20597;-65
2022/03/01 10:06:13;;;;;;;25.37;13.13;;;11.10;99.90;;;;;;5020259;28;20178;-66
2022/03/01 10:08:39;;;;;;;21.63;14.03;;;11.10;99.90;;;;;;5012356;28;20269;-66
2022/03/01 10:11:05;;;;;;;24.33;13.60;;;11.20;99.90;;;;;;5016577;28;20279;-66
2022/03/01 10:13:33;;;;;;;23.17;13.67;;;11.30;99.90;;;;;;5012151;28;20194;-67
2022/03/01 10:16:09;;;;;;;24.27;13.60;;;11.20;99.90;;;;;;5016138;28;20189;-66
2022/03/01 10:18:38;;;;;;;22.40;13.20;;;11.50;99.90;;;;;;5015825;28;20194;-66
2022/03/01 10:21:09;;;;;;;23.97;14.03;;;11.70;99.90;;;;;;5015399;28;20183;-67
2022/03/01 10:23:35;;;;;;;21.87;13.80;;;11.90;99.90;;;;;;5017452;28;20266;-67
2022/03/01 10:26:14;;;;;;;26.13;14.33;;;12.20;99.90;;;;;;5010975;28;20261;-66
2022/03/01 10:28:40;;;;;;;27.37;14.23;;;12.40;99.90;;;;;;5016023;28;20227;-66
2022/03/01 10:31:30;;;;;;;21.13;14.37;;;12.40;99.90;;;;;;5013978;28;20209;-67
2022/03/01 10:34:09;;;;;;;21.93;13.80;;;12.50;99.90;;;;;;5017412;27;20194;-66
2022/03/01 10:36:41;;;;;;;20.53;13.70;;;12.40;99.90;;;;;;5014863;28;20214;-66
2022/03/01 10:39:10;;;;;;;20.57;13.70;;;12.50;99.90;;;;;;5018270;28;20178;-66
2022/03/01 10:41:38;;;;;;;19.20;13.53;;;12.40;99.90;;;;;;5015873;28;20266;-66
2022/03/01 10:44:12;;;;;;;20.23;13.87;;;12.40;99.90;;;;;;5038355;27;20215;-67
2022/03/01 10:46:41;;;;;;;23.43;14.53;;;12.20;99.90;;;;;;5012944;28;20593;-67
2022/03/01 10:49:10;;;;;;;23.43;13.47;;;11.80;99.90;;;;;;5013280;28;20182;-66
2022/03/01 10:51:48;;;;;;;23.83;14.60;;;11.70;99.90;;;;;;5029387;28;20237;-65
2022/03/01 10:54:37;;;;;;;21.73;13.03;;;11.70;99.90;;;;;;5012042;28;20626;-65
2022/03/01 10:57:11;;;;;;;23.07;14.10;;;11.50;99.90;;;;;;5014065;28;20181;-67
2022/03/01 10:59:38;;;;;;;19.53;13.23;;;11.50;99.90;;;;;;5013112;28;20221;-66
2022/03/01 11:02:05;;;;;;;23.27;13.83;;;11.60;99.90;;;;;;5016429;28;20522;-67
2022/03/01 11:04:31;;;;;;;17.27;13.43;;;11.60;99.90;;;;;;5013387;28;20673;-67
2022/03/01 11:06:59;;;;;;;19.40;12.97;;;11.70;99.90;;;;;;5020319;28;20175;-66
2022/03/01 11:09:27;;;;;;;24.00;15.07;;;11.70;99.90;;;;;;5016680;28;20639;-67
2022/03/01 11:11:54;;;;;;;21.47;13.70;;;11.70;99.90;;;;;;5015340;28;20215;-67
2022/03/01 11:14:31;;;;;;;28.40;18.60;;;11.90;99.90;;;;;;5016608;28;20637;-67
2022/03/01 11:17:15;;;;;;;19.70;13.40;;;12.00;99.90;;;;;;5022957;28;20185;-67
2022/03/01 11:19:58;;;;;;;20.53;13.53;;;11.90;99.90;;;;;;5037146;27;20262;-66
2022/03/01 11:22:48;;;;;;;23.97;14.13;;;11.90;99.90;;;;;;5015454;28;20177;-67
2022/03/01 11:25:18;;;;;;;19.53;14.07;;;12.00;99.90;;;;;;5011359;28;20262;-67
2022/03/01 11:27:46;;;;;;;21.80;13.93;;;12.00;99.90;;;;;;5012032;28;20703;-67
2022/03/01 11:30:13;;;;;;;19.77;13.50;;;12.00;99.90;;;;;;5024850;28;20207;-67
2022/03/01 11:32:45;;;;;;;22.47;15.00;;;12.00;99.90;;;;;;5019231;28;20226;-66
2022/03/01 11:35:26;;;;;;;18.47;13.67;;;12.20;99.90;;;;;;5011538;28;20190;-67
2022/03/01 11:38:24;;;;;;;20.20;14.53;;;12.40;99.90;;;;;;5011082;28;20178;-67
2022/03/01 11:40:51;;;;;;;22.60;14.93;;;12.60;99.90;;;;;;5011761;28;20256;-66
2022/03/01 11:43:26;;;;;;;21.90;15.33;;;12.70;99.90;;;;;;5012369;28;20179;-66
2022/03/01 11:45:55;;;;;;;22.30;15.57;;;12.80;99.90;;;;;;5011990;28;20205;-67
2022/03/01 11:48:27;;;;;;;19.80;13.83;;;12.70;99.90;;;;;;5010896;28;20682;-67
2022/03/01 11:51:04;;;;;;;21.97;14.57;;;12.40;99.90;;;;;;5011942;28;20317;-66
2022/03/01 11:53:35;;;;;;;22.10;14.47;;;12.30;99.90;;;;;;5011302;28;20230;-67
2022/03/01 11:56:02;;;;;;;19.10;14.60;;;12.20;99.90;;;;;;5012241;28;20206;-67
2022/03/01 11:58:30;;;;;;;20.83;15.47;;;12.40;99.90;;;;;;5011670;28;20299;-66
2022/03/01 12:00:56;;;;;;;63.27;54.70;;;12.60;99.90;;;;;;5011707;28;20683;-67
2022/03/01 12:03:25;;;;;;;20.53;13.97;;;12.70;99.90;;;;;;5015582;28;20205;-67
2022/03/01 12:05:52;;;;;;;21.27;16.07;;;12.90;99.90;;;;;;5015320;28;20177;-68
2022/03/01 12:08:19;;;;;;;19.13;14.00;;;13.00;99.90;;;;;;5031201;28;20269;-67
2022/03/01 12:10:54;;;;;;;20.60;13.67;;;12.90;99.90;;;;;;5031250;28;20236;-68
2022/03/01 12:13:20;;;;;;;22.53;14.80;;;12.90;99.90;;;;;;5031150;28;20276;-66
2022/03/01 12:15:55;;;;;;;23.40;17.73;;;12.90;99.90;;;;;;5030586;28;20263;-66
2022/03/01 12:18:27;;;;;;;21.57;15.47;;;13.10;99.90;;;;;;5030131;28;20177;-67
2022/03/01 12:20:53;;;;;;;23.10;15.33;;;13.30;99.90;;;;;;5030956;28;20250;-67
2022/03/01 12:23:27;;;;;;;20.50;14.00;;;13.40;99.90;;;;;;5030175;28;20186;-66
2022/03/01 12:25:53;;;;;;;19.70;13.93;;;13.70;99.90;;;;;;5029973;28;20231;-67
2022/03/01 12:28:21;;;;;;;20.00;15.33;;;13.70;99.90;;;;;;5030411;28;20637;-68
2022/03/01 12:30:47;;;;;;;20.77;15.13;;;13.80;99.90;;;;;;5029472;28;20231;-68
2022/03/01 12:33:18;;;;;;;20.90;14.77;;;13.90;99.90;;;;;;5029916;28;20536;-67
2022/03/01 12:35:54;;;;;;;20.87;14.47;;;13.10;99.90;;;;;;5029663;28;20645;-67
2022/03/01 12:38:20;;;;;;;25.87;15.40;;;12.80;99.90;;;;;;5030267;28;20645;-66